createdAt,value
2023-05-10T00:01:48.223Z,16.63
2023-05-10T00:04:16.288Z,16.67
2023-05-10T00:06:44.237Z,16.65
2023-05-10T00:09:12.161Z,16.55
2023-05-10T00:11:41.502Z,16.56
2023-05-10T00:14:09.403Z,16.45
2023-05-10T00:16:37.470Z,16.37
2023-05-10T00:19:05.528Z,16.35
2023-05-10T00:21:34.682Z,16.08
2023-05-10T00:24:02.706Z,15.97
2023-05-10T00:26:30.625Z,16.14
2023-05-10T00:28:59.907Z,16.18
2023-05-10T00:31:27.954Z,16.18
2023-05-10T00:33:55.895Z,16.14
2023-05-10T00:36:24.016Z,16.05
2023-05-10T00:38:51.919Z,16.04
2023-05-10T00:41:19.870Z,16.02
2023-05-10T00:43:47.752Z,15.88
2023-05-10T00:46:17.882Z,15.81
2023-05-10T00:48:46.353Z,15.72
2023-05-10T00:51:14.743Z,15.66
2023-05-10T00:53:42.907Z,15.67
2023-05-10T00:56:11.539Z,15.70
2023-05-10T00:58:39.496Z,15.58
2023-05-10T01:01:07.959Z,15.60
2023-05-10T01:03:37.321Z,15.45
2023-05-10T01:06:05.627Z,15.42
2023-05-10T01:08:33.666Z,15.43
2023-05-10T01:11:01.676Z,15.40
2023-05-10T01:13:34.085Z,15.36
2023-05-10T01:16:03.508Z,15.26
2023-05-10T01:18:32.312Z,15.38
2023-05-10T01:21:08.813Z,15.41
2023-05-10T01:24:03.450Z,15.27
2023-05-10T01:26:47.341Z,15.24
2023-05-10T01:29:28.446Z,15.27
2023-05-10T01:32:24.590Z,15.18
2023-05-10T01:34:58.488Z,15.15
2023-05-10T01:37:34.049Z,15.10
2023-05-10T01:40:08.101Z,15.10
2023-05-10T01:42:41.463Z,15.07
2023-05-10T01:45:14.320Z,15.04
2023-05-10T01:47:45.417Z,15.03
2023-05-10T01:50:18.216Z,14.98
2023-05-10T01:52:51.555Z,14.84
2023-05-10T01:55:22.640Z,14.99
2023-05-10T01:57:53.676Z,15.06
2023-05-10T02:00:22.377Z,14.98
2023-05-10T02:02:52.057Z,14.96
2023-05-10T02:05:20.597Z,14.92
2023-05-10T02:07:49.273Z,14.92
2023-05-10T02:10:18.293Z,14.94
2023-05-10T02:12:48.572Z,14.94
2023-05-10T02:15:21.117Z,14.91
2023-05-10T02:17:49.449Z,14.90
2023-05-10T02:20:19.570Z,14.87
2023-05-10T02:22:47.932Z,14.80
2023-05-10T02:25:16.653Z,14.76
2023-05-10T02:27:45.533Z,14.60
2023-05-10T02:30:14.107Z,14.67
2023-05-10T02:32:42.499Z,14.69
2023-05-10T02:35:11.183Z,14.74
2023-05-10T02:37:40.902Z,14.75
2023-05-10T02:40:10.097Z,14.77
2023-05-10T02:42:39.699Z,14.78
2023-05-10T02:45:10.791Z,14.73
2023-05-10T02:47:38.701Z,14.68
2023-05-10T02:50:07.584Z,14.68
2023-05-10T02:52:43.842Z,14.46
2023-05-10T02:55:14.898Z,14.35
2023-05-10T02:57:48.602Z,14.23
2023-05-10T03:00:17.076Z,14.28
2023-05-10T03:02:45.286Z,14.43
2023-05-10T03:05:13.243Z,14.30
2023-05-10T03:07:41.152Z,14.26
2023-05-10T03:10:11.520Z,14.12
2023-05-10T03:12:55.221Z,14.18
2023-05-10T03:15:30.743Z,14.22
2023-05-10T03:18:03.781Z,14.28
2023-05-10T03:20:35.526Z,14.29
2023-05-10T03:23:07.184Z,14.19
2023-05-10T03:25:36.661Z,14.20
2023-05-10T03:28:06.089Z,14.05
2023-05-10T03:30:34.319Z,14.02
2023-05-10T03:33:06.907Z,14.04
2023-05-10T03:35:34.877Z,13.83
2023-05-10T03:38:02.787Z,13.91
2023-05-10T03:40:32.797Z,13.66
2023-05-10T03:43:02.120Z,13.78
2023-05-10T03:45:30.058Z,13.79
2023-05-10T03:47:58.002Z,13.81
2023-05-10T03:50:26.104Z,13.83
2023-05-10T03:52:54.865Z,13.91
2023-05-10T03:55:23.485Z,13.91
2023-05-10T03:57:51.597Z,13.84
2023-05-10T04:00:21.475Z,13.75
2023-05-10T04:02:49.468Z,13.83
2023-05-10T04:05:17.643Z,13.83
2023-05-10T04:07:45.938Z,13.97
2023-05-10T04:10:14.278Z,14.01
2023-05-10T04:12:42.324Z,13.97
2023-05-10T04:15:11.133Z,13.71
2023-05-10T04:17:40.734Z,13.89
2023-05-10T04:20:09.691Z,13.94
2023-05-10T04:22:37.582Z,13.93
2023-05-10T04:25:06.420Z,14.01
2023-05-10T04:27:34.416Z,14.03
2023-05-10T04:30:02.350Z,14.06
2023-05-10T04:32:30.349Z,14.16
2023-05-10T04:34:59.660Z,14.11
2023-05-10T04:37:27.569Z,14.12
2023-05-10T04:39:55.437Z,14.03
2023-05-10T04:42:23.344Z,14.08
2023-05-10T04:44:51.452Z,14.15
2023-05-10T04:47:19.341Z,14.20
2023-05-10T04:49:47.277Z,14.22
2023-05-10T04:52:18.463Z,14.25
2023-05-10T04:54:46.447Z,14.19
2023-05-10T04:57:14.357Z,14.22
2023-05-10T04:59:42.304Z,14.25
2023-05-10T05:02:10.291Z,14.21
2023-05-10T05:04:38.249Z,14.02
2023-05-10T05:07:06.195Z,14.11
2023-05-10T05:09:35.567Z,14.25
2023-05-10T05:12:03.560Z,14.33
2023-05-10T05:14:31.469Z,14.38
2023-05-10T05:16:59.351Z,14.24
2023-05-10T05:19:27.246Z,14.15
2023-05-10T05:21:55.158Z,14.12
2023-05-10T05:24:23.084Z,14.34
2023-05-10T05:26:52.367Z,14.21
2023-05-10T05:29:20.310Z,14.34
2023-05-10T05:31:48.293Z,14.29
2023-05-10T05:34:16.177Z,14.31
2023-05-10T05:36:44.091Z,13.90
2023-05-10T05:39:11.976Z,14.13
2023-05-10T05:41:39.896Z,14.49
2023-05-10T05:44:09.224Z,14.71
2023-05-10T05:46:37.152Z,14.42
2023-05-10T05:49:05.152Z,14.26
2023-05-10T05:51:33.284Z,14.33
2023-05-10T05:54:01.244Z,14.60
2023-05-10T05:56:29.139Z,13.99
2023-05-10T05:58:57.050Z,14.25
2023-05-10T06:01:26.367Z,14.54
2023-05-10T06:03:54.405Z,14.74
2023-05-10T06:06:22.429Z,14.28
2023-05-10T06:08:50.434Z,14.68
2023-05-10T06:11:18.341Z,14.31
2023-05-10T06:13:46.569Z,14.11
2023-05-10T06:16:14.711Z,14.13
2023-05-10T06:18:44.022Z,13.98
2023-05-10T06:21:12.051Z,14.02
2023-05-10T06:23:39.930Z,14.40
2023-05-10T06:26:08.000Z,14.64
2023-05-10T06:28:36.012Z,14.78
2023-05-10T06:31:04.005Z,14.54
2023-05-10T06:33:32.165Z,14.54
2023-05-10T06:36:01.777Z,14.04
2023-05-10T06:38:29.668Z,14.23
2023-05-10T06:40:58.141Z,14.63
2023-05-10T06:43:27.436Z,14.77
2023-05-10T06:45:55.357Z,14.75
2023-05-10T06:48:23.321Z,14.67
2023-05-10T06:50:51.307Z,14.82
2023-05-10T06:53:20.664Z,14.51
2023-05-10T06:55:48.634Z,14.45
2023-05-10T06:58:16.960Z,14.32
2023-05-10T07:00:46.365Z,14.61
2023-05-10T07:03:14.385Z,14.90
2023-05-10T07:05:42.675Z,14.95
2023-05-10T07:08:10.815Z,14.91
2023-05-10T07:10:40.279Z,14.81
2023-05-10T07:13:08.222Z,14.82
2023-05-10T07:15:36.225Z,15.14
2023-05-10T07:18:05.609Z,14.70
2023-05-10T07:20:33.652Z,14.56
2023-05-10T07:23:03.237Z,14.47
2023-05-10T07:25:31.136Z,14.27
2023-05-10T07:28:00.433Z,14.30
2023-05-10T07:30:28.482Z,14.53
2023-05-10T07:32:56.466Z,14.44
2023-05-10T07:35:24.396Z,14.32
2023-05-10T07:37:54.801Z,14.40
2023-05-10T07:40:23.031Z,14.36
2023-05-10T07:42:50.974Z,13.81
2023-05-10T07:45:20.351Z,13.86
2023-05-10T07:47:48.336Z,13.62
2023-05-10T07:50:16.471Z,13.59
2023-05-10T07:52:44.595Z,13.46
2023-05-10T07:55:12.537Z,13.21
2023-05-10T07:57:40.528Z,13.37
2023-05-10T08:00:09.641Z,13.42
2023-05-10T08:02:39.112Z,13.73
2023-05-10T08:05:07.965Z,13.97
2023-05-10T08:07:35.913Z,13.87
2023-05-10T08:10:03.911Z,14.05
2023-05-10T08:12:32.485Z,14.19
2023-05-10T08:15:00.405Z,14.16
2023-05-10T08:17:28.491Z,14.31
2023-05-10T08:19:57.922Z,14.00
2023-05-10T08:22:25.865Z,14.11
2023-05-10T08:24:53.812Z,13.72
2023-05-10T08:27:21.743Z,13.56
2023-05-10T08:29:50.600Z,13.40
2023-05-10T08:32:18.750Z,13.42
2023-05-10T08:34:46.716Z,13.37
2023-05-10T08:37:16.034Z,13.30
2023-05-10T08:39:44.031Z,13.34
2023-05-10T08:42:12.400Z,13.08
2023-05-10T08:44:40.718Z,12.87
2023-05-10T08:47:09.243Z,12.77
2023-05-10T08:49:37.882Z,13.04
2023-05-10T08:52:06.621Z,13.07
2023-05-10T08:54:36.594Z,12.97
2023-05-10T08:57:04.664Z,12.83
2023-05-10T08:59:32.992Z,12.66
2023-05-10T09:02:01.309Z,12.38
2023-05-10T09:04:30.191Z,12.07
2023-05-10T09:06:58.352Z,12.23
2023-05-10T09:09:26.464Z,12.30
2023-05-10T09:11:56.484Z,12.46
2023-05-10T09:14:25.945Z,12.63
2023-05-10T09:16:55.274Z,12.60
2023-05-10T09:19:23.213Z,12.55
2023-05-10T09:21:51.602Z,12.75
2023-05-10T09:24:19.559Z,12.79
2023-05-10T09:26:50.841Z,12.66
2023-05-10T09:29:20.292Z,12.19
2023-05-10T09:31:52.124Z,12.03
2023-05-10T09:34:21.318Z,11.97
2023-05-10T09:36:53.915Z,12.01
2023-05-10T09:39:22.473Z,11.85
2023-05-10T09:41:50.490Z,11.88
2023-05-10T09:44:22.867Z,12.23
2023-05-10T09:46:53.824Z,12.30
2023-05-10T09:49:21.892Z,12.34
2023-05-10T09:51:49.810Z,12.31
2023-05-10T09:54:18.556Z,12.36
2023-05-10T09:56:46.474Z,12.33
2023-05-10T09:59:14.696Z,12.34
2023-05-10T10:01:44.185Z,12.09
2023-05-10T10:04:12.601Z,12.28
2023-05-10T10:06:41.196Z,12.14
2023-05-10T10:09:09.385Z,12.26
2023-05-10T10:11:37.903Z,12.18
2023-05-10T10:14:06.435Z,12.15
2023-05-10T10:16:34.880Z,12.16
2023-05-10T10:19:04.327Z,12.35
2023-05-10T10:21:32.470Z,12.69
2023-05-10T10:24:00.482Z,12.71
2023-05-10T10:26:28.613Z,12.61
2023-05-10T10:29:04.031Z,12.65
2023-05-10T10:31:39.938Z,12.75
2023-05-10T10:34:10.988Z,12.53
2023-05-10T10:36:46.756Z,12.35
2023-05-10T10:39:14.932Z,12.66
2023-05-10T10:41:51.657Z,12.56
2023-05-10T10:44:36.531Z,12.40
2023-05-10T10:47:12.372Z,12.58
2023-05-10T10:49:46.606Z,12.81
2023-05-10T10:52:27.814Z,13.03
2023-05-10T10:55:00.893Z,12.81
2023-05-10T10:57:31.105Z,12.92
2023-05-10T11:00:21.875Z,13.17
2023-05-10T11:02:51.185Z,13.02
2023-05-10T11:05:40.506Z,13.24
2023-05-10T11:08:20.026Z,13.44
2023-05-10T11:11:05.559Z,13.58
2023-05-10T11:13:35.016Z,13.45
2023-05-10T11:16:13.525Z,13.83
2023-05-10T11:18:41.590Z,13.65
2023-05-10T11:21:12.689Z,13.83
2023-05-10T11:23:57.123Z,13.70
2023-05-10T11:26:26.565Z,13.35
2023-05-10T11:28:57.107Z,13.42
2023-05-10T11:31:27.648Z,13.73
2023-05-10T11:33:57.705Z,13.55
2023-05-10T11:36:28.878Z,13.70
2023-05-10T11:38:57.686Z,13.74
2023-05-10T11:41:27.048Z,13.87
2023-05-10T11:43:55.949Z,13.80
2023-05-10T11:46:25.391Z,13.74
2023-05-10T11:48:54.903Z,14.15
2023-05-10T11:51:23.348Z,14.07
2023-05-10T11:53:54.892Z,14.36
2023-05-10T11:56:22.914Z,14.25
2023-05-10T11:58:55.369Z,14.31
2023-05-10T12:01:24.038Z,14.47
2023-05-10T12:03:52.946Z,14.75
2023-05-10T12:06:21.695Z,15.08
2023-05-10T12:08:53.494Z,15.43
2023-05-10T12:11:27.042Z,15.73
2023-05-10T12:13:55.749Z,15.92
2023-05-10T12:16:24.927Z,15.47
2023-05-10T12:18:53.417Z,15.67
2023-05-10T12:21:22.401Z,15.59
2023-05-10T12:23:52.521Z,15.84
2023-05-10T12:26:22.320Z,15.71
2023-05-10T12:28:50.245Z,14.96
2023-05-10T12:31:18.203Z,15.18
2023-05-10T12:33:47.357Z,15.19
2023-05-10T12:36:16.815Z,15.36
2023-05-10T12:38:48.809Z,15.68
2023-05-10T12:41:18.152Z,16.07
2023-05-10T12:43:47.636Z,16.25
2023-05-10T12:46:16.994Z,16.47
2023-05-10T12:48:46.435Z,16.22
2023-05-10T12:51:16.702Z,16.17
2023-05-10T12:53:49.384Z,15.74
2023-05-10T12:56:17.585Z,15.43
2023-05-10T12:58:49.038Z,15.32
2023-05-10T13:01:18.626Z,15.08
2023-05-10T13:03:49.307Z,15.19
2023-05-10T13:06:17.309Z,14.94
2023-05-10T13:08:45.210Z,15.04
2023-05-10T13:11:17.536Z,15.01
2023-05-10T13:13:45.711Z,15.15
2023-05-10T13:16:13.721Z,14.89
2023-05-10T13:18:43.204Z,15.11
2023-05-10T13:21:12.264Z,15.45
2023-05-10T13:23:40.180Z,15.69
2023-05-10T13:26:08.093Z,16.20
2023-05-10T13:28:36.019Z,16.15
2023-05-10T13:31:03.973Z,16.33
2023-05-10T13:33:31.923Z,16.33
2023-05-10T13:36:01.290Z,16.54
2023-05-10T13:38:29.303Z,17.11
2023-05-10T13:40:57.296Z,16.55
2023-05-10T13:43:26.065Z,16.67
2023-05-10T13:45:54.032Z,16.58
2023-05-10T13:48:22.142Z,17.14
2023-05-10T13:50:50.069Z,17.46
2023-05-10T13:53:19.429Z,17.41
2023-05-10T13:55:47.312Z,17.45
2023-05-10T13:58:15.279Z,17.53
2023-05-10T14:00:43.209Z,16.94
2023-05-10T14:03:12.112Z,16.50
2023-05-10T14:05:40.936Z,16.62
2023-05-10T14:08:10.439Z,16.83
2023-05-10T14:10:40.440Z,16.60
2023-05-10T14:13:08.922Z,16.83
2023-05-10T14:15:36.877Z,16.83
2023-05-10T14:18:05.107Z,16.88
2023-05-10T14:20:34.669Z,16.51
2023-05-10T14:23:02.612Z,16.34
2023-05-10T14:25:30.554Z,16.11
2023-05-10T14:27:59.823Z,16.28
2023-05-10T14:30:28.073Z,16.24
2023-05-10T14:32:59.520Z,16.38
2023-05-10T14:35:27.524Z,16.43
2023-05-10T14:37:55.503Z,16.42
2023-05-10T14:40:23.828Z,16.26
2023-05-10T14:42:53.906Z,16.27
2023-05-10T14:45:23.530Z,16.19
2023-05-10T14:47:51.763Z,16.27
2023-05-10T14:50:35.190Z,16.13
2023-05-10T14:53:04.314Z,16.14
2023-05-10T14:55:32.269Z,15.69
2023-05-10T14:58:00.305Z,15.73
2023-05-10T15:00:31.570Z,15.61
2023-05-10T15:03:02.457Z,15.82
2023-05-10T15:05:30.888Z,16.16
2023-05-10T15:07:59.307Z,16.02
2023-05-10T15:10:27.228Z,15.99
2023-05-10T15:12:55.104Z,16.01
2023-05-10T15:15:23.086Z,15.87
2023-05-10T15:17:52.427Z,15.81
2023-05-10T15:20:20.409Z,15.87
2023-05-10T15:22:48.411Z,16.03
2023-05-10T15:25:16.929Z,16.00
2023-05-10T15:27:45.564Z,15.97
2023-05-10T15:30:14.305Z,16.13
2023-05-10T15:32:42.246Z,16.00
2023-05-10T15:35:12.168Z,16.00
2023-05-10T15:37:40.222Z,16.23
2023-05-10T15:40:09.548Z,16.38
2023-05-10T15:42:37.458Z,16.68
2023-05-10T15:45:07.103Z,16.90
2023-05-10T15:47:35.226Z,16.80
2023-05-10T15:50:03.670Z,16.47
2023-05-10T15:52:33.116Z,16.39
2023-05-10T15:55:01.058Z,16.45
2023-05-10T15:57:28.954Z,16.28
2023-05-10T15:59:57.908Z,15.93
2023-05-10T16:02:26.140Z,16.05
2023-05-10T16:04:54.089Z,16.10
2023-05-10T16:07:21.998Z,15.93
2023-05-10T16:09:51.367Z,16.18
2023-05-10T16:12:21.792Z,15.99
2023-05-10T16:14:49.751Z,15.72
2023-05-10T16:17:17.840Z,15.59
2023-05-10T16:19:45.825Z,15.46
2023-05-10T16:22:13.728Z,15.49
2023-05-10T16:24:42.467Z,15.36
2023-05-10T16:27:13.252Z,15.34
2023-05-10T16:29:41.177Z,14.87
2023-05-10T16:32:09.098Z,14.99
2023-05-10T16:34:37.024Z,15.19
2023-05-10T16:37:04.959Z,15.10
2023-05-10T16:39:32.907Z,15.16
2023-05-10T16:42:01.180Z,14.90
2023-05-10T16:44:30.614Z,14.97
2023-05-10T16:46:58.876Z,14.97
2023-05-10T16:49:27.648Z,15.00
2023-05-10T16:51:55.587Z,14.85
2023-05-10T16:54:23.588Z,14.86
2023-05-10T16:56:51.826Z,15.04
2023-05-10T16:59:19.800Z,14.79
2023-05-10T17:01:49.254Z,14.49
2023-05-10T17:04:17.807Z,14.33
2023-05-10T17:06:45.774Z,14.36
2023-05-10T17:09:13.880Z,14.36
2023-05-10T17:11:42.004Z,14.23
2023-05-10T17:14:10.313Z,14.39
2023-05-10T17:16:38.316Z,14.36
2023-05-10T17:19:07.834Z,14.44
2023-05-10T17:21:35.768Z,14.34
2023-05-10T17:24:03.687Z,14.31
2023-05-10T17:26:31.717Z,14.14
2023-05-10T17:28:59.900Z,14.21
2023-05-10T17:31:28.276Z,14.24
2023-05-10T17:33:56.260Z,14.32
2023-05-10T17:36:25.570Z,14.45
2023-05-10T17:38:53.555Z,14.68
2023-05-10T17:41:21.773Z,14.46
2023-05-10T17:43:49.675Z,14.43
2023-05-10T17:46:17.725Z,14.68
2023-05-10T17:48:45.850Z,14.61
2023-05-10T17:51:13.746Z,14.66
2023-05-10T17:53:43.140Z,14.81
2023-05-10T17:56:11.331Z,14.67
2023-05-10T17:58:39.254Z,14.53
2023-05-10T18:01:07.346Z,14.53
2023-05-10T18:03:36.046Z,14.47
2023-05-10T18:06:04.375Z,14.19
2023-05-10T18:08:33.116Z,14.20
2023-05-10T18:11:02.375Z,14.05
2023-05-10T18:13:30.309Z,14.31
2023-05-10T18:15:58.209Z,14.38
2023-05-10T18:18:26.235Z,14.29
2023-05-10T18:20:56.808Z,14.47
2023-05-10T18:23:24.866Z,14.59
2023-05-10T18:25:52.894Z,14.54
2023-05-10T18:28:22.276Z,14.28
2023-05-10T18:30:50.167Z,14.48
2023-05-10T18:33:18.085Z,14.56
2023-05-10T18:35:46.250Z,14.57
2023-05-10T18:38:14.242Z,14.50
2023-05-10T18:40:42.803Z,14.47
2023-05-10T18:43:10.786Z,14.45
2023-05-10T18:45:40.187Z,14.45
2023-05-10T18:48:08.377Z,14.42
2023-05-10T18:50:36.377Z,14.27
2023-05-10T18:53:04.596Z,14.19
2023-05-10T18:55:32.504Z,14.33
2023-05-10T18:58:00.489Z,14.41
2023-05-10T19:00:28.523Z,14.37
2023-05-10T19:02:57.952Z,14.41
2023-05-10T19:05:29.952Z,14.45
2023-05-10T19:07:58.009Z,14.50
2023-05-10T19:10:25.952Z,14.52
2023-05-10T19:12:53.875Z,14.50
2023-05-10T19:15:22.256Z,14.51
2023-05-10T19:17:50.703Z,14.47
2023-05-10T19:20:20.252Z,14.45
2023-05-10T19:23:02.215Z,14.43
2023-05-10T19:25:36.070Z,14.40
2023-05-10T19:28:04.194Z,14.37
2023-05-10T19:30:32.242Z,14.32
2023-05-10T19:33:00.172Z,14.31
2023-05-10T19:35:29.631Z,14.31
2023-05-10T19:37:57.512Z,14.28
2023-05-10T19:40:25.438Z,14.25
2023-05-10T19:42:53.941Z,14.20
2023-05-10T19:45:22.395Z,14.14
2023-05-10T19:47:50.355Z,14.13
2023-05-10T19:50:18.871Z,14.11
2023-05-10T19:52:49.120Z,14.06
2023-05-10T19:55:27.194Z,13.97
2023-05-10T19:57:55.156Z,13.95
2023-05-10T20:00:23.281Z,13.94
2023-05-10T20:02:51.436Z,13.92
2023-05-10T20:05:19.481Z,13.88
2023-05-10T20:07:48.921Z,13.84
2023-05-10T20:10:17.496Z,13.72
2023-05-10T20:12:51.059Z,13.66
2023-05-10T20:15:20.127Z,13.67
2023-05-10T20:17:48.433Z,13.71
2023-05-10T20:20:17.055Z,13.69
2023-05-10T20:22:45.389Z,13.61
2023-05-10T20:25:15.148Z,13.52
2023-05-10T20:27:43.080Z,13.40
2023-05-10T20:30:11.826Z,13.37
2023-05-10T20:32:40.138Z,13.31
2023-05-10T20:35:08.627Z,13.19
2023-05-10T20:37:37.835Z,12.99
2023-05-10T20:40:06.894Z,12.83
2023-05-10T20:42:36.215Z,12.62
2023-05-10T20:45:04.542Z,12.44
2023-05-10T20:47:32.605Z,12.30
2023-05-10T20:50:00.544Z,12.24
2023-05-10T20:52:28.441Z,12.23
2023-05-10T20:54:56.411Z,12.21
2023-05-10T20:57:24.334Z,12.35
2023-05-10T20:59:54.670Z,12.55
2023-05-10T21:02:22.580Z,12.69
2023-05-10T21:04:50.530Z,12.68
2023-05-10T21:07:18.463Z,12.77
2023-05-10T21:09:46.386Z,12.81
2023-05-10T21:12:14.512Z,12.75
2023-05-10T21:14:43.077Z,12.73
2023-05-10T21:17:12.328Z,12.76
2023-05-10T21:19:40.197Z,12.76
2023-05-10T21:22:08.111Z,12.67
2023-05-10T21:24:36.094Z,12.63
2023-05-10T21:27:04.756Z,12.67
2023-05-10T21:29:32.655Z,12.53
2023-05-10T21:32:01.224Z,12.41
2023-05-10T21:34:31.114Z,12.42
2023-05-10T21:36:59.064Z,12.46
2023-05-10T21:39:26.956Z,12.53
2023-05-10T21:41:54.850Z,12.56
2023-05-10T21:44:22.778Z,12.66
2023-05-10T21:46:50.713Z,12.70
2023-05-10T21:49:18.931Z,12.74
2023-05-10T21:51:48.653Z,12.77
2023-05-10T21:54:16.575Z,12.82
2023-05-10T21:56:44.985Z,12.92
2023-05-10T21:59:12.905Z,12.77
2023-05-10T22:01:41.191Z,12.77
2023-05-10T22:04:09.432Z,12.84
2023-05-10T22:06:37.347Z,12.85
2023-05-10T22:09:06.717Z,12.83
2023-05-10T22:11:34.651Z,12.84
2023-05-10T22:14:02.892Z,12.90
2023-05-10T22:16:31.081Z,12.98
2023-05-10T22:18:59.147Z,13.01
2023-05-10T22:21:27.115Z,12.90
2023-05-10T22:23:55.023Z,12.96
2023-05-10T22:26:24.298Z,12.99
2023-05-10T22:28:52.189Z,12.97
2023-05-10T22:31:20.172Z,12.92
2023-05-10T22:33:48.127Z,12.90
2023-05-10T22:36:16.751Z,12.86
2023-05-10T22:38:44.714Z,12.84
2023-05-10T22:41:12.685Z,12.83
2023-05-10T22:43:42.126Z,12.71
2023-05-10T22:46:10.059Z,12.56
2023-05-10T22:48:37.978Z,12.72
2023-05-10T22:51:05.978Z,12.90
2023-05-10T22:53:33.896Z,12.85
2023-05-10T22:56:01.862Z,12.83
2023-05-10T22:58:29.921Z,12.81
2023-05-10T23:00:59.436Z,12.75
2023-05-10T23:03:27.434Z,12.68
2023-05-10T23:05:55.360Z,12.71
2023-05-10T23:08:23.503Z,12.76
2023-05-10T23:10:51.731Z,12.75
2023-05-10T23:13:21.037Z,12.71
2023-05-10T23:15:49.084Z,12.65
2023-05-10T23:18:18.684Z,12.52
2023-05-10T23:20:46.702Z,12.51
2023-05-10T23:23:14.606Z,12.59
2023-05-10T23:25:42.502Z,12.63
2023-05-10T23:28:10.856Z,12.67
2023-05-10T23:30:38.762Z,12.66
2023-05-10T23:33:06.700Z,12.75
2023-05-10T23:35:36.217Z,12.82
2023-05-10T23:38:04.099Z,12.97
2023-05-10T23:40:32.030Z,12.98
2023-05-10T23:42:59.932Z,12.94
2023-05-10T23:45:27.983Z,12.92
2023-05-10T23:47:56.051Z,12.80
2023-05-10T23:50:24.027Z,12.64
2023-05-10T23:52:53.303Z,12.34
2023-05-10T23:55:21.423Z,12.55
2023-05-10T23:57:49.335Z,12.51
